sensor_id;sensor_type;location;lat;lon;timestamp;P1;durP1;ratioP1;P2;durP2;ratioP2
55417;SDS011;41287;47.554;7.844;2023-09-12T00:00:53;4.68;;;3.97;;
55417;SDS011;41287;47.554;7.844;2023-09-12T00:03:20;4.60;;;3.70;;
55417;SDS011;41287;47.554;7.844;2023-09-12T00:05:56;5.07;;;3.97;;
55417;SDS011;41287;47.554;7.844;2023-09-12T00:08:22;5.30;;;4.03;;
55417;SDS011;41287;47.554;7.844;2023-09-12T00:13:35;5.35;;;4.50;;
55417;SDS011;41287;47.554;7.844;2023-09-12T00:16:06;6.13;;;4.30;;
55417;SDS011;41287;47.554;7.844;2023-09-12T00:18:34;5.18;;;4.43;;
55417;SDS011;41287;47.554;7.844;2023-09-12T00:20:59;5.03;;;4.07;;
55417;SDS011;41287;47.554;7.844;2023-09-12T00:23:25;5.40;;;4.05;;
55417;SDS011;41287;47.554;7.844;2023-09-12T00:25:51;5.28;;;4.20;;
55417;SDS011;41287;47.554;7.844;2023-09-12T00:28:17;5.30;;;4.15;;
55417;SDS011;41287;47.554;7.844;2023-09-12T00:30:43;4.43;;;3.83;;
55417;SDS011;41287;47.554;7.844;2023-09-12T00:33:08;5.13;;;4.32;;
55417;SDS011;41287;47.554;7.844;2023-09-12T00:35:33;5.80;;;4.40;;
55417;SDS011;41287;47.554;7.844;2023-09-12T00:37:59;5.57;;;4.32;;
55417;SDS011;41287;47.554;7.844;2023-09-12T00:40:24;5.63;;;4.65;;
55417;SDS011;41287;47.554;7.844;2023-09-12T00:42:49;6.10;;;4.47;;
55417;SDS011;41287;47.554;7.844;2023-09-12T00:45:15;5.22;;;4.30;;
55417;SDS011;41287;47.554;7.844;2023-09-12T00:47:40;5.70;;;4.53;;
55417;SDS011;41287;47.554;7.844;2023-09-12T00:50:06;6.53;;;4.53;;
55417;SDS011;41287;47.554;7.844;2023-09-12T00:52:33;5.03;;;4.13;;
55417;SDS011;41287;47.554;7.844;2023-09-12T00:55:01;6.65;;;4.38;;
55417;SDS011;41287;47.554;7.844;2023-09-12T00:57:27;6.85;;;4.50;;
55417;SDS011;41287;47.554;7.844;2023-09-12T00:59:55;5.80;;;4.80;;
55417;SDS011;41287;47.554;7.844;2023-09-12T01:02:22;6.68;;;4.40;;
55417;SDS011;41287;47.554;7.844;2023-09-12T01:04:49;5.13;;;4.22;;
55417;SDS011;41287;47.554;7.844;2023-09-12T01:07:14;6.35;;;4.68;;
55417;SDS011;41287;47.554;7.844;2023-09-12T01:09:40;6.07;;;4.53;;
55417;SDS011;41287;47.554;7.844;2023-09-12T01:12:05;5.88;;;4.50;;
55417;SDS011;41287;47.554;7.844;2023-09-12T01:14:31;6.53;;;4.68;;
55417;SDS011;41287;47.554;7.844;2023-09-12T01:16:57;5.80;;;4.60;;
55417;SDS011;41287;47.554;7.844;2023-09-12T01:19:28;5.75;;;4.25;;
55417;SDS011;41287;47.554;7.844;2023-09-12T01:21:59;5.45;;;4.45;;
55417;SDS011;41287;47.554;7.844;2023-09-12T01:27:21;5.72;;;4.60;;
55417;SDS011;41287;47.554;7.844;2023-09-12T01:29:57;5.63;;;4.70;;
55417;SDS011;41287;47.554;7.844;2023-09-12T01:32:25;5.93;;;4.40;;
55417;SDS011;41287;47.554;7.844;2023-09-12T01:34:51;6.45;;;5.00;;
55417;SDS011;41287;47.554;7.844;2023-09-12T01:37:16;6.05;;;4.82;;
55417;SDS011;41287;47.554;7.844;2023-09-12T01:39:42;6.30;;;4.82;;
55417;SDS011;41287;47.554;7.844;2023-09-12T01:42:11;6.78;;;5.00;;
55417;SDS011;41287;47.554;7.844;2023-09-12T01:44:39;5.50;;;4.60;;
55417;SDS011;41287;47.554;7.844;2023-09-12T01:47:10;6.20;;;4.88;;
55417;SDS011;41287;47.554;7.844;2023-09-12T01:49:39;6.03;;;4.63;;
55417;SDS011;41287;47.554;7.844;2023-09-12T01:52:07;7.05;;;5.10;;
55417;SDS011;41287;47.554;7.844;2023-09-12T01:54:32;6.07;;;4.88;;
55417;SDS011;41287;47.554;7.844;2023-09-12T01:56:59;5.50;;;4.18;;
55417;SDS011;41287;47.554;7.844;2023-09-12T01:59:26;5.18;;;4.40;;
55417;SDS011;41287;47.554;7.844;2023-09-12T02:01:51;6.30;;;4.75;;
55417;SDS011;41287;47.554;7.844;2023-09-12T02:04:17;6.00;;;4.78;;
55417;SDS011;41287;47.554;7.844;2023-09-12T02:06:42;5.78;;;4.20;;
55417;SDS011;41287;47.554;7.844;2023-09-12T02:09:07;6.63;;;4.70;;
55417;SDS011;41287;47.554;7.844;2023-09-12T02:11:36;6.22;;;4.97;;
55417;SDS011;41287;47.554;7.844;2023-09-12T02:14:01;6.18;;;4.80;;
55417;SDS011;41287;47.554;7.844;2023-09-12T02:16:27;6.97;;;4.72;;
55417;SDS011;41287;47.554;7.844;2023-09-12T02:18:52;6.57;;;4.90;;
55417;SDS011;41287;47.554;7.844;2023-09-12T02:21:18;6.87;;;4.87;;
55417;SDS011;41287;47.554;7.844;2023-09-12T02:23:43;7.47;;;5.22;;
55417;SDS011;41287;47.554;7.844;2023-09-12T02:26:10;7.05;;;5.10;;
55417;SDS011;41287;47.554;7.844;2023-09-12T02:28:36;6.55;;;4.88;;
55417;SDS011;41287;47.554;7.844;2023-09-12T02:31:01;7.73;;;5.10;;
55417;SDS011;41287;47.554;7.844;2023-09-12T02:33:26;5.93;;;4.87;;
55417;SDS011;41287;47.554;7.844;2023-09-12T02:35:53;6.63;;;4.75;;
55417;SDS011;41287;47.554;7.844;2023-09-12T02:38:19;6.43;;;4.97;;
55417;SDS011;41287;47.554;7.844;2023-09-12T02:40:44;4.57;;;4.10;;
55417;SDS011;41287;47.554;7.844;2023-09-12T02:43:09;7.30;;;5.30;;
55417;SDS011;41287;47.554;7.844;2023-09-12T02:45:35;6.50;;;4.72;;
55417;SDS011;41287;47.554;7.844;2023-09-12T02:48:02;7.00;;;5.63;;
55417;SDS011;41287;47.554;7.844;2023-09-12T02:50:28;6.40;;;4.72;;
55417;SDS011;41287;47.554;7.844;2023-09-12T02:52:53;6.57;;;4.53;;
55417;SDS011;41287;47.554;7.844;2023-09-12T02:55:18;6.53;;;5.07;;
55417;SDS011;41287;47.554;7.844;2023-09-12T02:57:44;6.50;;;4.95;;
55417;SDS011;41287;47.554;7.844;2023-09-12T03:00:09;8.57;;;5.47;;
55417;SDS011;41287;47.554;7.844;2023-09-12T03:02:36;6.00;;;4.82;;
55417;SDS011;41287;47.554;7.844;2023-09-12T03:05:01;6.85;;;5.50;;
55417;SDS011;41287;47.554;7.844;2023-09-12T03:07:27;7.03;;;5.30;;
55417;SDS011;41287;47.554;7.844;2023-09-12T03:09:52;6.50;;;5.23;;
55417;SDS011;41287;47.554;7.844;2023-09-12T03:12:17;6.20;;;4.72;;
55417;SDS011;41287;47.554;7.844;2023-09-12T03:14:46;6.60;;;5.15;;
55417;SDS011;41287;47.554;7.844;2023-09-12T03:17:11;6.93;;;5.05;;
55417;SDS011;41287;47.554;7.844;2023-09-12T03:19:37;7.60;;;5.28;;
55417;SDS011;41287;47.554;7.844;2023-09-12T03:22:04;6.68;;;5.25;;
55417;SDS011;41287;47.554;7.844;2023-09-12T03:24:29;8.32;;;5.60;;
55417;SDS011;41287;47.554;7.844;2023-09-12T03:26:54;5.45;;;4.78;;
55417;SDS011;41287;47.554;7.844;2023-09-12T03:29:20;8.07;;;5.25;;
55417;SDS011;41287;47.554;7.844;2023-09-12T03:31:45;6.78;;;5.38;;
55417;SDS011;41287;47.554;7.844;2023-09-12T03:34:11;7.65;;;5.20;;
55417;SDS011;41287;47.554;7.844;2023-09-12T03:36:36;6.50;;;5.00;;
55417;SDS011;41287;47.554;7.844;2023-09-12T03:39:01;7.22;;;5.38;;
55417;SDS011;41287;47.554;7.844;2023-09-12T03:41:28;7.50;;;5.45;;
55417;SDS011;41287;47.554;7.844;2023-09-12T03:43:55;6.70;;;5.05;;
55417;SDS011;41287;47.554;7.844;2023-09-12T03:46:21;6.53;;;4.90;;
55417;SDS011;41287;47.554;7.844;2023-09-12T03:48:47;5.90;;;5.05;;
55417;SDS011;41287;47.554;7.844;2023-09-12T03:51:12;6.30;;;5.00;;
55417;SDS011;41287;47.554;7.844;2023-09-12T03:53:38;6.32;;;4.90;;
55417;SDS011;41287;47.554;7.844;2023-09-12T03:56:05;7.18;;;5.70;;
55417;SDS011;41287;47.554;7.844;2023-09-12T03:58:31;5.93;;;5.03;;
55417;SDS011;41287;47.554;7.844;2023-09-12T04:00:56;6.60;;;5.43;;
55417;SDS011;41287;47.554;7.844;2023-09-12T04:03:22;6.30;;;5.07;;
55417;SDS011;41287;47.554;7.844;2023-09-12T04:05:47;6.90;;;4.75;;
55417;SDS011;41287;47.554;7.844;2023-09-12T04:08:13;8.55;;;5.68;;
55417;SDS011;41287;47.554;7.844;2023-09-12T04:10:38;12.23;;;6.15;;
55417;SDS011;41287;47.554;7.844;2023-09-12T04:13:04;7.63;;;5.68;;
55417;SDS011;41287;47.554;7.844;2023-09-12T04:15:29;7.22;;;4.93;;
55417;SDS011;41287;47.554;7.844;2023-09-12T04:17:54;7.72;;;4.60;;
55417;SDS011;41287;47.554;7.844;2023-09-12T04:20:23;7.88;;;5.65;;
55417;SDS011;41287;47.554;7.844;2023-09-12T04:22:48;7.97;;;4.72;;
55417;SDS011;41287;47.554;7.844;2023-09-12T04:25:14;6.05;;;4.57;;
55417;SDS011;41287;47.554;7.844;2023-09-12T04:27:40;5.55;;;4.43;;
55417;SDS011;41287;47.554;7.844;2023-09-12T04:30:06;9.10;;;4.68;;
55417;SDS011;41287;47.554;7.844;2023-09-12T04:32:32;8.00;;;5.05;;
55417;SDS011;41287;47.554;7.844;2023-09-12T04:34:57;7.43;;;4.60;;
55417;SDS011;41287;47.554;7.844;2023-09-12T04:37:23;5.90;;;4.32;;
55417;SDS011;41287;47.554;7.844;2023-09-12T04:39:48;6.80;;;4.25;;
55417;SDS011;41287;47.554;7.844;2023-09-12T04:42:14;6.07;;;4.50;;
55417;SDS011;41287;47.554;7.844;2023-09-12T04:44:39;6.20;;;3.90;;
55417;SDS011;41287;47.554;7.844;2023-09-12T04:47:06;5.10;;;3.70;;
55417;SDS011;41287;47.554;7.844;2023-09-12T04:49:31;5.22;;;4.03;;
55417;SDS011;41287;47.554;7.844;2023-09-12T04:51:57;6.20;;;3.83;;
55417;SDS011;41287;47.554;7.844;2023-09-12T04:54:22;5.35;;;4.07;;
55417;SDS011;41287;47.554;7.844;2023-09-12T04:56:48;5.32;;;3.53;;
55417;SDS011;41287;47.554;7.844;2023-09-12T04:59:13;5.03;;;3.78;;
55417;SDS011;41287;47.554;7.844;2023-09-12T05:01:38;5.85;;;3.70;;
55417;SDS011;41287;47.554;7.844;2023-09-12T05:04:07;5.22;;;3.20;;
55417;SDS011;41287;47.554;7.844;2023-09-12T05:06:32;4.35;;;3.53;;
55417;SDS011;41287;47.554;7.844;2023-09-12T05:08:58;4.97;;;3.65;;
55417;SDS011;41287;47.554;7.844;2023-09-12T05:11:24;5.72;;;3.35;;
55417;SDS011;41287;47.554;7.844;2023-09-12T05:13:50;3.70;;;3.17;;
55417;SDS011;41287;47.554;7.844;2023-09-12T05:16:15;3.85;;;3.17;;
55417;SDS011;41287;47.554;7.844;2023-09-12T05:18:41;3.50;;;3.05;;
55417;SDS011;41287;47.554;7.844;2023-09-12T05:21:06;4.72;;;3.17;;
55417;SDS011;41287;47.554;7.844;2023-09-12T05:23:31;4.32;;;3.30;;
55417;SDS011;41287;47.554;7.844;2023-09-12T05:25:57;3.85;;;3.00;;
55417;SDS011;41287;47.554;7.844;2023-09-12T05:28:22;4.78;;;3.60;;
55417;SDS011;41287;47.554;7.844;2023-09-12T05:30:51;5.15;;;3.20;;
55417;SDS011;41287;47.554;7.844;2023-09-12T05:33:16;4.38;;;3.17;;
55417;SDS011;41287;47.554;7.844;2023-09-12T05:35:41;3.67;;;2.88;;
55417;SDS011;41287;47.554;7.844;2023-09-12T05:38:07;4.15;;;3.00;;
55417;SDS011;41287;47.554;7.844;2023-09-12T05:40:32;4.05;;;2.85;;
55417;SDS011;41287;47.554;7.844;2023-09-12T05:42:58;3.78;;;2.95;;
55417;SDS011;41287;47.554;7.844;2023-09-12T05:45:23;4.35;;;3.28;;
55417;SDS011;41287;47.554;7.844;2023-09-12T05:47:49;4.80;;;3.40;;
55417;SDS011;41287;47.554;7.844;2023-09-12T05:50:15;3.58;;;3.05;;
55417;SDS011;41287;47.554;7.844;2023-09-12T05:52:43;4.93;;;3.15;;
55417;SDS011;41287;47.554;7.844;2023-09-12T05:55:09;4.07;;;3.15;;
55417;SDS011;41287;47.554;7.844;2023-09-12T05:57:34;3.22;;;2.88;;
55417;SDS011;41287;47.554;7.844;2023-09-12T06:00:00;3.30;;;2.38;;
55417;SDS011;41287;47.554;7.844;2023-09-12T06:02:35;4.07;;;3.00;;
55417;SDS011;41287;47.554;7.844;2023-09-12T06:05:00;3.58;;;2.90;;
55417;SDS011;41287;47.554;7.844;2023-09-12T06:07:25;3.72;;;2.90;;
55417;SDS011;41287;47.554;7.844;2023-09-12T06:09:51;4.57;;;2.83;;
55417;SDS011;41287;47.554;7.844;2023-09-12T06:12:16;3.78;;;2.70;;
55417;SDS011;41287;47.554;7.844;2023-09-12T06:14:43;3.72;;;3.03;;
55417;SDS011;41287;47.554;7.844;2023-09-12T06:17:09;3.47;;;2.80;;
55417;SDS011;41287;47.554;7.844;2023-09-12T06:19:34;3.15;;;2.85;;
55417;SDS011;41287;47.554;7.844;2023-09-12T06:21:59;3.88;;;2.78;;
55417;SDS011;41287;47.554;7.844;2023-09-12T06:24:25;3.80;;;2.47;;
55417;SDS011;41287;47.554;7.844;2023-09-12T06:26:50;3.10;;;2.42;;
55417;SDS011;41287;47.554;7.844;2023-09-12T06:29:16;3.20;;;2.70;;
55417;SDS011;41287;47.554;7.844;2023-09-12T06:31:42;3.67;;;3.13;;
55417;SDS011;41287;47.554;7.844;2023-09-12T06:34:07;3.58;;;2.70;;
55417;SDS011;41287;47.554;7.844;2023-09-12T06:36:33;3.13;;;2.50;;
55417;SDS011;41287;47.554;7.844;2023-09-12T06:38:59;2.85;;;2.50;;
55417;SDS011;41287;47.554;7.844;2023-09-12T06:41:25;3.63;;;2.83;;
55417;SDS011;41287;47.554;7.844;2023-09-12T06:43:51;3.20;;;2.50;;
55417;SDS011;41287;47.554;7.844;2023-09-12T06:46:22;3.28;;;2.47;;
55417;SDS011;41287;47.554;7.844;2023-09-12T06:48:47;2.92;;;2.40;;
55417;SDS011;41287;47.554;7.844;2023-09-12T06:51:15;3.22;;;2.38;;
55417;SDS011;41287;47.554;7.844;2023-09-12T06:53:40;2.85;;;2.40;;
55417;SDS011;41287;47.554;7.844;2023-09-12T06:56:06;3.08;;;2.45;;
55417;SDS011;41287;47.554;7.844;2023-09-12T06:58:31;3.83;;;2.70;;
55417;SDS011;41287;47.554;7.844;2023-09-12T07:01:04;3.45;;;2.55;;
55417;SDS011;41287;47.554;7.844;2023-09-12T07:03:31;2.85;;;2.30;;
55417;SDS011;41287;47.554;7.844;2023-09-12T07:06:00;2.47;;;2.20;;
55417;SDS011;41287;47.554;7.844;2023-09-12T07:08:25;3.17;;;2.60;;
55417;SDS011;41287;47.554;7.844;2023-09-12T07:10:51;4.03;;;2.60;;
55417;SDS011;41287;47.554;7.844;2023-09-12T07:13:19;3.10;;;2.47;;
55417;SDS011;41287;47.554;7.844;2023-09-12T07:15:44;3.90;;;2.57;;
55417;SDS011;41287;47.554;7.844;2023-09-12T07:18:10;3.45;;;2.55;;
55417;SDS011;41287;47.554;7.844;2023-09-12T07:20:40;2.72;;;2.33;;
55417;SDS011;41287;47.554;7.844;2023-09-12T07:23:05;2.83;;;2.05;;
55417;SDS011;41287;47.554;7.844;2023-09-12T07:25:35;2.83;;;2.28;;
55417;SDS011;41287;47.554;7.844;2023-09-12T07:28:02;2.75;;;2.15;;
55417;SDS011;41287;47.554;7.844;2023-09-12T07:30:28;2.75;;;2.20;;
55417;SDS011;41287;47.554;7.844;2023-09-12T07:32:57;3.05;;;2.40;;
55417;SDS011;41287;47.554;7.844;2023-09-12T07:35:22;3.03;;;2.10;;
55417;SDS011;41287;47.554;7.844;2023-09-12T07:37:49;2.13;;;1.90;;
55417;SDS011;41287;47.554;7.844;2023-09-12T07:40:14;2.33;;;2.13;;
55417;SDS011;41287;47.554;7.844;2023-09-12T07:42:40;2.70;;;2.22;;
55417;SDS011;41287;47.554;7.844;2023-09-12T07:45:06;2.63;;;2.15;;
55417;SDS011;41287;47.554;7.844;2023-09-12T07:47:32;2.83;;;2.10;;
55417;SDS011;41287;47.554;7.844;2023-09-12T07:49:58;3.42;;;1.95;;
55417;SDS011;41287;47.554;7.844;2023-09-12T07:52:25;2.47;;;2.22;;
55417;SDS011;41287;47.554;7.844;2023-09-12T07:54:58;2.70;;;2.33;;
55417;SDS011;41287;47.554;7.844;2023-09-12T07:57:24;3.15;;;2.13;;
55417;SDS011;41287;47.554;7.844;2023-09-12T07:59:49;2.83;;;2.42;;
55417;SDS011;41287;47.554;7.844;2023-09-12T08:02:15;2.65;;;1.98;;
55417;SDS011;41287;47.554;7.844;2023-09-12T08:04:40;2.80;;;2.13;;
55417;SDS011;41287;47.554;7.844;2023-09-12T08:07:10;2.80;;;2.33;;
55417;SDS011;41287;47.554;7.844;2023-09-12T08:12:21;2.95;;;2.50;;
55417;SDS011;41287;47.554;7.844;2023-09-12T08:14:47;2.72;;;1.95;;
55417;SDS011;41287;47.554;7.844;2023-09-12T08:17:13;2.38;;;1.90;;
55417;SDS011;41287;47.554;7.844;2023-09-12T08:19:39;2.63;;;2.13;;
55417;SDS011;41287;47.554;7.844;2023-09-12T08:22:05;2.72;;;2.03;;
55417;SDS011;41287;47.554;7.844;2023-09-12T08:24:33;2.55;;;2.15;;
55417;SDS011;41287;47.554;7.844;2023-09-12T08:26:59;2.97;;;2.33;;
55417;SDS011;41287;47.554;7.844;2023-09-12T08:29:24;2.75;;;2.10;;
55417;SDS011;41287;47.554;7.844;2023-09-12T08:31:52;2.03;;;1.80;;
55417;SDS011;41287;47.554;7.844;2023-09-12T08:34:18;2.50;;;2.20;;
55417;SDS011;41287;47.554;7.844;2023-09-12T08:36:45;2.50;;;2.10;;
55417;SDS011;41287;47.554;7.844;2023-09-12T08:39:14;2.08;;;1.80;;
55417;SDS011;41287;47.554;7.844;2023-09-12T08:41:44;1.95;;;1.70;;
55417;SDS011;41287;47.554;7.844;2023-09-12T08:44:11;2.83;;;2.03;;
55417;SDS011;41287;47.554;7.844;2023-09-12T08:46:37;2.30;;;2.00;;
55417;SDS011;41287;47.554;7.844;2023-09-12T08:49:04;2.38;;;1.92;;
55417;SDS011;41287;47.554;7.844;2023-09-12T08:51:31;2.35;;;2.03;;
55417;SDS011;41287;47.554;7.844;2023-09-12T08:53:57;2.60;;;2.00;;
55417;SDS011;41287;47.554;7.844;2023-09-12T08:56:23;2.45;;;2.03;;
55417;SDS011;41287;47.554;7.844;2023-09-12T08:58:49;2.95;;;2.10;;
55417;SDS011;41287;47.554;7.844;2023-09-12T09:01:16;2.08;;;1.70;;
55417;SDS011;41287;47.554;7.844;2023-09-12T09:03:43;2.30;;;1.80;;
55417;SDS011;41287;47.554;7.844;2023-09-12T09:06:09;2.92;;;1.95;;
55417;SDS011;41287;47.554;7.844;2023-09-12T09:08:35;2.05;;;1.65;;
55417;SDS011;41287;47.554;7.844;2023-09-12T09:11:02;2.30;;;1.73;;
55417;SDS011;41287;47.554;7.844;2023-09-12T09:13:28;2.58;;;2.15;;
55417;SDS011;41287;47.554;7.844;2023-09-12T09:21:17;1.70;;;1.60;;
55417;SDS011;41287;47.554;7.844;2023-09-12T09:23:45;2.20;;;1.90;;
55417;SDS011;41287;47.554;7.844;2023-09-12T09:26:13;2.53;;;2.00;;
55417;SDS011;41287;47.554;7.844;2023-09-12T09:28:39;2.28;;;1.90;;
55417;SDS011;41287;47.554;7.844;2023-09-12T09:31:04;2.28;;;1.65;;
55417;SDS011;41287;47.554;7.844;2023-09-12T09:33:36;2.03;;;1.67;;
55417;SDS011;41287;47.554;7.844;2023-09-12T09:36:10;2.15;;;1.75;;
55417;SDS011;41287;47.554;7.844;2023-09-12T09:38:36;2.33;;;1.67;;
55417;SDS011;41287;47.554;7.844;2023-09-12T09:41:05;2.20;;;1.90;;
55417;SDS011;41287;47.554;7.844;2023-09-12T09:43:31;2.53;;;2.05;;
55417;SDS011;41287;47.554;7.844;2023-09-12T09:45:57;2.15;;;1.90;;
55417;SDS011;41287;47.554;7.844;2023-09-12T09:48:25;2.25;;;1.83;;
55417;SDS011;41287;47.554;7.844;2023-09-12T09:50:52;2.13;;;1.80;;
55417;SDS011;41287;47.554;7.844;2023-09-12T09:53:31;1.88;;;1.67;;
55417;SDS011;41287;47.554;7.844;2023-09-12T09:56:15;1.90;;;1.70;;
55417;SDS011;41287;47.554;7.844;2023-09-12T09:58:55;2.08;;;1.70;;
55417;SDS011;41287;47.554;7.844;2023-09-12T10:01:22;1.98;;;1.60;;
55417;SDS011;41287;47.554;7.844;2023-09-12T10:03:59;1.83;;;1.60;;
55417;SDS011;41287;47.554;7.844;2023-09-12T10:06:26;2.88;;;2.10;;
55417;SDS011;41287;47.554;7.844;2023-09-12T10:08:53;1.65;;;1.40;;
55417;SDS011;41287;47.554;7.844;2023-09-12T10:11:23;2.08;;;1.73;;
55417;SDS011;41287;47.554;7.844;2023-09-12T10:13:49;1.90;;;1.70;;
55417;SDS011;41287;47.554;7.844;2023-09-12T10:16:19;1.63;;;1.45;;
55417;SDS011;41287;47.554;7.844;2023-09-12T10:19:04;1.90;;;1.50;;
55417;SDS011;41287;47.554;7.844;2023-09-12T10:21:40;1.90;;;1.60;;
55417;SDS011;41287;47.554;7.844;2023-09-12T10:24:11;1.85;;;1.60;;
55417;SDS011;41287;47.554;7.844;2023-09-12T10:26:38;1.80;;;1.40;;
55417;SDS011;41287;47.554;7.844;2023-09-12T10:29:08;1.50;;;1.40;;
55417;SDS011;41287;47.554;7.844;2023-09-12T10:31:35;1.88;;;1.60;;
55417;SDS011;41287;47.554;7.844;2023-09-12T10:34:00;1.60;;;1.45;;
55417;SDS011;41287;47.554;7.844;2023-09-12T10:36:27;1.90;;;1.45;;
55417;SDS011;41287;47.554;7.844;2023-09-12T10:38:54;2.25;;;1.73;;
55417;SDS011;41287;47.554;7.844;2023-09-12T10:41:20;1.88;;;1.60;;
55417;SDS011;41287;47.554;7.844;2023-09-12T10:43:47;1.75;;;1.60;;
55417;SDS011;41287;47.554;7.844;2023-09-12T10:46:17;2.33;;;1.80;;
55417;SDS011;41287;47.554;7.844;2023-09-12T10:48:47;1.70;;;1.50;;
55417;SDS011;41287;47.554;7.844;2023-09-12T10:51:13;1.73;;;1.30;;
55417;SDS011;41287;47.554;7.844;2023-09-12T10:53:45;2.00;;;1.80;;
55417;SDS011;41287;47.554;7.844;2023-09-12T10:56:19;2.05;;;1.60;;
55417;SDS011;41287;47.554;7.844;2023-09-12T10:59:27;2.08;;;1.85;;
55417;SDS011;41287;47.554;7.844;2023-09-12T11:01:37;1.90;;;1.50;;
55417;SDS011;41287;47.554;7.844;2023-09-12T11:06:48;2.03;;;1.52;;
55417;SDS011;41287;47.554;7.844;2023-09-12T11:11:42;1.50;;;1.27;;
55417;SDS011;41287;47.554;7.844;2023-09-12T11:14:09;1.70;;;1.50;;
55417;SDS011;41287;47.554;7.844;2023-09-12T11:16:34;1.55;;;1.45;;
55417;SDS011;41287;47.554;7.844;2023-09-12T11:19:15;1.98;;;1.50;;
55417;SDS011;41287;47.554;7.844;2023-09-12T11:21:43;1.50;;;1.40;;
55417;SDS011;41287;47.554;7.844;2023-09-12T11:24:13;1.63;;;1.33;;
55417;SDS011;41287;47.554;7.844;2023-09-12T11:26:52;2.03;;;1.60;;
55417;SDS011;41287;47.554;7.844;2023-09-12T11:32:03;1.60;;;1.27;;
55417;SDS011;41287;47.554;7.844;2023-09-12T11:34:41;1.70;;;1.35;;
55417;SDS011;41287;47.554;7.844;2023-09-12T11:37:08;1.52;;;1.27;;
55417;SDS011;41287;47.554;7.844;2023-09-12T11:39:34;1.95;;;1.35;;
55417;SDS011;41287;47.554;7.844;2023-09-12T11:42:01;1.42;;;1.25;;
55417;SDS011;41287;47.554;7.844;2023-09-12T11:44:28;1.98;;;1.38;;
55417;SDS011;41287;47.554;7.844;2023-09-12T11:46:56;1.65;;;1.50;;
55417;SDS011;41287;47.554;7.844;2023-09-12T11:49:37;1.45;;;1.35;;
55417;SDS011;41287;47.554;7.844;2023-09-12T11:52:07;1.27;;;1.17;;
55417;SDS011;41287;47.554;7.844;2023-09-12T11:54:34;1.50;;;1.20;;
55417;SDS011;41287;47.554;7.844;2023-09-12T11:56:59;1.67;;;1.40;;
55417;SDS011;41287;47.554;7.844;2023-09-12T11:59:27;1.50;;;1.30;;
55417;SDS011;41287;47.554;7.844;2023-09-12T12:01:54;2.00;;;1.40;;
55417;SDS011;41287;47.554;7.844;2023-09-12T12:04:23;1.83;;;1.33;;
55417;SDS011;41287;47.554;7.844;2023-09-12T12:06:50;1.33;;;1.23;;
55417;SDS011;41287;47.554;7.844;2023-09-12T12:09:18;1.52;;;1.40;;
55417;SDS011;41287;47.554;7.844;2023-09-12T12:11:44;1.60;;;1.35;;
55417;SDS011;41287;47.554;7.844;2023-09-12T12:16:38;1.30;;;1.17;;
55417;SDS011;41287;47.554;7.844;2023-09-12T12:19:04;1.85;;;1.48;;
55417;SDS011;41287;47.554;7.844;2023-09-12T12:21:29;1.40;;;1.23;;
55417;SDS011;41287;47.554;7.844;2023-09-12T12:24:02;1.50;;;1.30;;
55417;SDS011;41287;47.554;7.844;2023-09-12T12:26:29;1.40;;;1.30;;
55417;SDS011;41287;47.554;7.844;2023-09-12T12:28:55;1.50;;;1.35;;
55417;SDS011;41287;47.554;7.844;2023-09-12T12:31:21;1.67;;;1.20;;
55417;SDS011;41287;47.554;7.844;2023-09-12T12:33:49;1.50;;;1.35;;
55417;SDS011;41287;47.554;7.844;2023-09-12T12:36:18;1.70;;;1.27;;
55417;SDS011;41287;47.554;7.844;2023-09-12T12:38:45;1.20;;;1.10;;
55417;SDS011;41287;47.554;7.844;2023-09-12T12:41:15;1.42;;;1.23;;
55417;SDS011;41287;47.554;7.844;2023-09-12T12:43:42;1.23;;;1.13;;
55417;SDS011;41287;47.554;7.844;2023-09-12T12:46:12;1.55;;;1.40;;
55417;SDS011;41287;47.554;7.844;2023-09-12T12:48:37;1.40;;;1.20;;
55417;SDS011;41287;47.554;7.844;2023-09-12T12:51:13;1.30;;;1.20;;
55417;SDS011;41287;47.554;7.844;2023-09-12T12:53:43;1.58;;;1.33;;
55417;SDS011;41287;47.554;7.844;2023-09-12T12:56:11;1.45;;;1.20;;
55417;SDS011;41287;47.554;7.844;2023-09-12T12:58:39;1.70;;;1.25;;
55417;SDS011;41287;47.554;7.844;2023-09-12T13:01:04;1.38;;;1.20;;
55417;SDS011;41287;47.554;7.844;2023-09-12T13:03:29;2.33;;;1.45;;
55417;SDS011;41287;47.554;7.844;2023-09-12T13:05:56;1.20;;;1.10;;
55417;SDS011;41287;47.554;7.844;2023-09-12T13:08:22;1.33;;;1.20;;
55417;SDS011;41287;47.554;7.844;2023-09-12T13:10:47;1.20;;;1.10;;
55417;SDS011;41287;47.554;7.844;2023-09-12T13:13:12;1.27;;;1.17;;
55417;SDS011;41287;47.554;7.844;2023-09-12T13:15:38;1.02;;;0.90;;
55417;SDS011;41287;47.554;7.844;2023-09-12T13:18:03;1.35;;;1.10;;
55417;SDS011;41287;47.554;7.844;2023-09-12T13:20:31;1.40;;;1.20;;
55417;SDS011;41287;47.554;7.844;2023-09-12T13:22:56;1.30;;;1.13;;
55417;SDS011;41287;47.554;7.844;2023-09-12T13:25:22;1.27;;;1.17;;
55417;SDS011;41287;47.554;7.844;2023-09-12T13:27:48;1.65;;;1.20;;
55417;SDS011;41287;47.554;7.844;2023-09-12T13:30:14;1.73;;;1.20;;
55417;SDS011;41287;47.554;7.844;2023-09-12T13:32:39;1.30;;;1.10;;
55417;SDS011;41287;47.554;7.844;2023-09-12T13:35:05;1.20;;;1.10;;
55417;SDS011;41287;47.554;7.844;2023-09-12T13:37:31;1.40;;;1.20;;
55417;SDS011;41287;47.554;7.844;2023-09-12T13:40:00;1.30;;;1.20;;
55417;SDS011;41287;47.554;7.844;2023-09-12T13:42:25;1.58;;;1.27;;
55417;SDS011;41287;47.554;7.844;2023-09-12T13:44:55;1.23;;;1.13;;
55417;SDS011;41287;47.554;7.844;2023-09-12T13:47:24;1.10;;;1.00;;
55417;SDS011;41287;47.554;7.844;2023-09-12T13:49:50;1.45;;;1.30;;
55417;SDS011;41287;47.554;7.844;2023-09-12T13:52:19;1.40;;;1.17;;
55417;SDS011;41287;47.554;7.844;2023-09-12T13:54:45;2.10;;;1.10;;
55417;SDS011;41287;47.554;7.844;2023-09-12T13:57:11;1.35;;;1.10;;
55417;SDS011;41287;47.554;7.844;2023-09-12T13:59:36;1.80;;;1.42;;
55417;SDS011;41287;47.554;7.844;2023-09-12T14:02:05;1.33;;;1.15;;
55417;SDS011;41287;47.554;7.844;2023-09-12T14:04:30;1.40;;;1.10;;
55417;SDS011;41287;47.554;7.844;2023-09-12T14:06:56;1.30;;;1.20;;
55417;SDS011;41287;47.554;7.844;2023-09-12T14:09:23;1.35;;;1.05;;
55417;SDS011;41287;47.554;7.844;2023-09-12T14:11:48;1.20;;;1.08;;
55417;SDS011;41287;47.554;7.844;2023-09-12T14:14:14;1.50;;;1.08;;
55417;SDS011;41287;47.554;7.844;2023-09-12T14:16:39;1.05;;;0.90;;
55417;SDS011;41287;47.554;7.844;2023-09-12T14:19:05;1.08;;;0.93;;
55417;SDS011;41287;47.554;7.844;2023-09-12T14:21:30;0.95;;;0.85;;
55417;SDS011;41287;47.554;7.844;2023-09-12T14:23:56;1.38;;;1.20;;
55417;SDS011;41287;47.554;7.844;2023-09-12T14:26:22;1.20;;;1.10;;
55417;SDS011;41287;47.554;7.844;2023-09-12T14:28:47;1.50;;;1.30;;
55417;SDS011;41287;47.554;7.844;2023-09-12T14:31:13;1.10;;;1.00;;
55417;SDS011;41287;47.554;7.844;2023-09-12T14:33:42;1.15;;;1.00;;
55417;SDS011;41287;47.554;7.844;2023-09-12T14:36:08;1.20;;;1.10;;
55417;SDS011;41287;47.554;7.844;2023-09-12T14:38:34;1.05;;;0.95;;
55417;SDS011;41287;47.554;7.844;2023-09-12T14:40:59;1.20;;;1.10;;
55417;SDS011;41287;47.554;7.844;2023-09-12T14:43:24;1.02;;;0.93;;
55417;SDS011;41287;47.554;7.844;2023-09-12T14:45:53;1.45;;;1.25;;
55417;SDS011;41287;47.554;7.844;2023-09-12T14:48:19;1.30;;;1.20;;
55417;SDS011;41287;47.554;7.844;2023-09-12T14:50:44;1.30;;;1.20;;
55417;SDS011;41287;47.554;7.844;2023-09-12T14:53:13;1.30;;;1.13;;
55417;SDS011;41287;47.554;7.844;2023-09-12T14:55:39;1.10;;;0.90;;
55417;SDS011;41287;47.554;7.844;2023-09-12T14:58:05;1.20;;;1.00;;
55417;SDS011;41287;47.554;7.844;2023-09-12T15:00:30;1.08;;;0.98;;
55417;SDS011;41287;47.554;7.844;2023-09-12T15:03:00;1.13;;;1.00;;
55417;SDS011;41287;47.554;7.844;2023-09-12T15:05:25;1.05;;;0.80;;
55417;SDS011;41287;47.554;7.844;2023-09-12T15:07:51;1.42;;;1.02;;
55417;SDS011;41287;47.554;7.844;2023-09-12T15:10:17;1.02;;;0.95;;